sensor_id;sensor_type;location;lat;lon;timestamp;temperature;humidity
21244;DHT22;10780;50.942;4.028;2022-07-22T00:01:40;16.40;99.90
21244;DHT22;10780;50.942;4.028;2022-07-22T00:04:06;16.30;99.90
21244;DHT22;10780;50.942;4.028;2022-07-22T00:06:31;16.20;99.90
21244;DHT22;10780;50.942;4.028;2022-07-22T00:08:57;16.20;99.90
21244;DHT22;10780;50.942;4.028;2022-07-22T00:11:23;16.20;99.90
21244;DHT22;10780;50.942;4.028;2022-07-22T00:13:49;16.20;99.90
21244;DHT22;10780;50.942;4.028;2022-07-22T00:16:15;16.20;99.90
21244;DHT22;10780;50.942;4.028;2022-07-22T00:18:41;16.30;99.90
21244;DHT22;10780;50.942;4.028;2022-07-22T00:21:06;16.30;99.90
21244;DHT22;10780;50.942;4.028;2022-07-22T00:23:32;16.50;99.90
21244;DHT22;10780;50.942;4.028;2022-07-22T00:25:58;16.60;99.90
21244;DHT22;10780;50.942;4.028;2022-07-22T00:28:24;16.70;99.90
21244;DHT22;10780;50.942;4.028;2022-07-22T00:30:49;16.70;99.90
21244;DHT22;10780;50.942;4.028;2022-07-22T00:33:15;16.60;99.90
21244;DHT22;10780;50.942;4.028;2022-07-22T00:35:40;16.60;99.90
21244;DHT22;10780;50.942;4.028;2022-07-22T00:38:06;16.50;99.90
21244;DHT22;10780;50.942;4.028;2022-07-22T00:40:32;16.60;99.90
21244;DHT22;10780;50.942;4.028;2022-07-22T00:42:57;16.70;99.90
21244;DHT22;10780;50.942;4.028;2022-07-22T00:45:23;16.60;99.90
21244;DHT22;10780;50.942;4.028;2022-07-22T00:47:48;16.50;99.90
21244;DHT22;10780;50.942;4.028;2022-07-22T00:50:14;16.40;99.90
21244;DHT22;10780;50.942;4.028;2022-07-22T00:52:41;16.30;99.90
21244;DHT22;10780;50.942;4.028;2022-07-22T00:55:07;16.30;99.90
21244;DHT22;10780;50.942;4.028;2022-07-22T00:57:33;16.40;99.90
21244;DHT22;10780;50.942;4.028;2022-07-22T00:59:59;16.50;99.90
21244;DHT22;10780;50.942;4.028;2022-07-22T01:02:24;16.60;99.90
21244;DHT22;10780;50.942;4.028;2022-07-22T01:04:50;16.40;99.90
21244;DHT22;10780;50.942;4.028;2022-07-22T01:07:16;16.40;99.90
21244;DHT22;10780;50.942;4.028;2022-07-22T01:09:45;16.40;99.90
21244;DHT22;10780;50.942;4.028;2022-07-22T01:12:11;16.40;99.90
21244;DHT22;10780;50.942;4.028;2022-07-22T01:14:37;16.40;99.90
21244;DHT22;10780;50.942;4.028;2022-07-22T01:17:03;16.30;99.90
21244;DHT22;10780;50.942;4.028;2022-07-22T01:19:28;16.20;99.90
21244;DHT22;10780;50.942;4.028;2022-07-22T01:21:54;16.00;99.90
21244;DHT22;10780;50.942;4.028;2022-07-22T01:24:20;15.90;99.90
21244;DHT22;10780;50.942;4.028;2022-07-22T01:26:46;15.80;99.90
21244;DHT22;10780;50.942;4.028;2022-07-22T01:29:11;15.70;99.90
21244;DHT22;10780;50.942;4.028;2022-07-22T01:31:37;15.70;99.90
21244;DHT22;10780;50.942;4.028;2022-07-22T01:34:03;15.80;99.90
21244;DHT22;10780;50.942;4.028;2022-07-22T01:36:28;15.90;99.90
21244;DHT22;10780;50.942;4.028;2022-07-22T01:38:55;16.00;99.90
21244;DHT22;10780;50.942;4.028;2022-07-22T01:41:20;16.20;99.90
21244;DHT22;10780;50.942;4.028;2022-07-22T01:43:46;16.10;99.90
21244;DHT22;10780;50.942;4.028;2022-07-22T01:46:12;16.00;99.90
21244;DHT22;10780;50.942;4.028;2022-07-22T01:48:38;15.90;99.90
21244;DHT22;10780;50.942;4.028;2022-07-22T01:51:03;15.90;99.90
21244;DHT22;10780;50.942;4.028;2022-07-22T01:53:29;16.00;99.90
21244;DHT22;10780;50.942;4.028;2022-07-22T01:55:55;16.00;99.90
21244;DHT22;10780;50.942;4.028;2022-07-22T01:58:21;16.00;99.90
21244;DHT22;10780;50.942;4.028;2022-07-22T02:00:47;15.90;99.90
21244;DHT22;10780;50.942;4.028;2022-07-22T02:03:13;15.80;99.90
21244;DHT22;10780;50.942;4.028;2022-07-22T02:05:39;15.80;99.90
21244;DHT22;10780;50.942;4.028;2022-07-22T02:08:07;15.70;99.90
21244;DHT22;10780;50.942;4.028;2022-07-22T02:10:34;15.70;99.90
21244;DHT22;10780;50.942;4.028;2022-07-22T02:13:00;15.70;99.90
21244;DHT22;10780;50.942;4.028;2022-07-22T02:15:26;15.90;99.90
21244;DHT22;10780;50.942;4.028;2022-07-22T02:17:52;16.00;99.90
21244;DHT22;10780;50.942;4.028;2022-07-22T02:20:19;16.10;99.90
21244;DHT22;10780;50.942;4.028;2022-07-22T02:22:44;15.90;99.90
21244;DHT22;10780;50.942;4.028;2022-07-22T02:25:11;15.90;99.90
21244;DHT22;10780;50.942;4.028;2022-07-22T02:27:37;15.80;99.90
21244;DHT22;10780;50.942;4.028;2022-07-22T02:30:04;15.80;99.90
21244;DHT22;10780;50.942;4.028;2022-07-22T02:32:30;15.70;99.90
21244;DHT22;10780;50.942;4.028;2022-07-22T02:34:56;15.80;99.90
21244;DHT22;10780;50.942;4.028;2022-07-22T02:37:21;15.80;99.90
21244;DHT22;10780;50.942;4.028;2022-07-22T02:39:47;15.90;99.90
21244;DHT22;10780;50.942;4.028;2022-07-22T02:42:12;15.90;99.90
21244;DHT22;10780;50.942;4.028;2022-07-22T02:44:38;16.00;99.90
21244;DHT22;10780;50.942;4.028;2022-07-22T02:47:04;15.90;99.90
21244;DHT22;10780;50.942;4.028;2022-07-22T02:49:29;15.90;99.90
21244;DHT22;10780;50.942;4.028;2022-07-22T02:51:55;15.90;99.90
21244;DHT22;10780;50.942;4.028;2022-07-22T02:54:20;15.80;99.90
21244;DHT22;10780;50.942;4.028;2022-07-22T02:56:46;15.90;99.90
21244;DHT22;10780;50.942;4.028;2022-07-22T02:59:11;15.90;99.90
21244;DHT22;10780;50.942;4.028;2022-07-22T03:01:37;15.90;99.90
21244;DHT22;10780;50.942;4.028;2022-07-22T03:04:03;15.80;99.90
21244;DHT22;10780;50.942;4.028;2022-07-22T03:06:28;15.80;99.90
21244;DHT22;10780;50.942;4.028;2022-07-22T03:08:54;15.80;99.90
21244;DHT22;10780;50.942;4.028;2022-07-22T03:11:20;15.80;99.90
21244;DHT22;10780;50.942;4.028;2022-07-22T03:13:45;15.90;99.90
21244;DHT22;10780;50.942;4.028;2022-07-22T03:16:11;15.80;99.90
21244;DHT22;10780;50.942;4.028;2022-07-22T03:18:37;15.80;99.90
21244;DHT22;10780;50.942;4.028;2022-07-22T03:21:02;15.80;99.90
21244;DHT22;10780;50.942;4.028;2022-07-22T03:23:28;15.70;99.90
21244;DHT22;10780;50.942;4.028;2022-07-22T03:25:55;15.80;99.90
21244;DHT22;10780;50.942;4.028;2022-07-22T03:28:21;15.90;99.90
21244;DHT22;10780;50.942;4.028;2022-07-22T03:30:47;15.90;99.90
21244;DHT22;10780;50.942;4.028;2022-07-22T03:33:13;16.10;99.90
21244;DHT22;10780;50.942;4.028;2022-07-22T03:35:38;16.20;99.90
21244;DHT22;10780;50.942;4.028;2022-07-22T03:38:04;16.30;99.90
21244;DHT22;10780;50.942;4.028;2022-07-22T03:40:29;16.40;99.90
21244;DHT22;10780;50.942;4.028;2022-07-22T03:42:55;16.50;99.90
21244;DHT22;10780;50.942;4.028;2022-07-22T03:45:21;16.50;99.90
21244;DHT22;10780;50.942;4.028;2022-07-22T03:47:46;16.50;99.90
21244;DHT22;10780;50.942;4.028;2022-07-22T03:50:12;16.60;99.90
21244;DHT22;10780;50.942;4.028;2022-07-22T03:52:37;16.60;99.90
21244;DHT22;10780;50.942;4.028;2022-07-22T03:55:04;16.60;99.90
21244;DHT22;10780;50.942;4.028;2022-07-22T03:57:30;16.60;99.90
21244;DHT22;10780;50.942;4.028;2022-07-22T03:59:55;16.40;99.90
21244;DHT22;10780;50.942;4.028;2022-07-22T04:02:21;16.20;99.90
21244;DHT22;10780;50.942;4.028;2022-07-22T04:04:47;16.20;99.90
21244;DHT22;10780;50.942;4.028;2022-07-22T04:07:12;16.40;99.90
21244;DHT22;10780;50.942;4.028;2022-07-22T04:09:38;16.40;99.90
21244;DHT22;10780;50.942;4.028;2022-07-22T04:12:04;16.20;99.90
21244;DHT22;10780;50.942;4.028;2022-07-22T04:14:30;16.20;99.90
21244;DHT22;10780;50.942;4.028;2022-07-22T04:16:55;16.20;99.90
21244;DHT22;10780;50.942;4.028;2022-07-22T04:19:21;16.20;99.90
21244;DHT22;10780;50.942;4.028;2022-07-22T04:21:46;16.30;99.90
21244;DHT22;10780;50.942;4.028;2022-07-22T04:24:12;16.40;99.90
21244;DHT22;10780;50.942;4.028;2022-07-22T04:26:37;16.60;99.90
21244;DHT22;10780;50.942;4.028;2022-07-22T04:29:04;16.50;99.90
21244;DHT22;10780;50.942;4.028;2022-07-22T04:31:30;16.40;99.90
21244;DHT22;10780;50.942;4.028;2022-07-22T04:33:57;16.60;99.90
21244;DHT22;10780;50.942;4.028;2022-07-22T04:36:22;16.60;99.90
21244;DHT22;10780;50.942;4.028;2022-07-22T04:38:48;16.80;99.90
21244;DHT22;10780;50.942;4.028;2022-07-22T04:41:13;16.90;99.90
21244;DHT22;10780;50.942;4.028;2022-07-22T04:43:39;17.00;99.90
21244;DHT22;10780;50.942;4.028;2022-07-22T04:46:05;16.80;99.90
21244;DHT22;10780;50.942;4.028;2022-07-22T04:48:30;16.80;99.90
21244;DHT22;10780;50.942;4.028;2022-07-22T04:51:00;16.90;99.90
21244;DHT22;10780;50.942;4.028;2022-07-22T04:53:26;16.90;99.90
21244;DHT22;10780;50.942;4.028;2022-07-22T04:55:52;17.00;99.90
21244;DHT22;10780;50.942;4.028;2022-07-22T04:58:18;17.00;99.90
21244;DHT22;10780;50.942;4.028;2022-07-22T05:00:43;17.20;99.90
21244;DHT22;10780;50.942;4.028;2022-07-22T05:03:09;17.30;99.90
21244;DHT22;10780;50.942;4.028;2022-07-22T05:05:34;17.30;99.90
21244;DHT22;10780;50.942;4.028;2022-07-22T05:08:00;17.50;99.90
21244;DHT22;10780;50.942;4.028;2022-07-22T05:10:26;17.60;99.90
21244;DHT22;10780;50.942;4.028;2022-07-22T05:12:52;17.70;99.90
21244;DHT22;10780;50.942;4.028;2022-07-22T05:15:18;17.70;99.90
21244;DHT22;10780;50.942;4.028;2022-07-22T05:17:44;17.80;99.90
21244;DHT22;10780;50.942;4.028;2022-07-22T05:20:10;17.70;99.90
21244;DHT22;10780;50.942;4.028;2022-07-22T05:22:36;17.30;99.90
21244;DHT22;10780;50.942;4.028;2022-07-22T05:25:01;17.20;99.90
21244;DHT22;10780;50.942;4.028;2022-07-22T05:27:27;17.30;99.90
21244;DHT22;10780;50.942;4.028;2022-07-22T05:29:53;17.50;99.90
21244;DHT22;10780;50.942;4.028;2022-07-22T05:32:18;17.40;99.90
21244;DHT22;10780;50.942;4.028;2022-07-22T05:34:44;17.50;99.90
21244;DHT22;10780;50.942;4.028;2022-07-22T05:37:10;17.60;99.90
21244;DHT22;10780;50.942;4.028;2022-07-22T05:39:35;18.00;99.90
21244;DHT22;10780;50.942;4.028;2022-07-22T05:42:01;18.20;99.90
21244;DHT22;10780;50.942;4.028;2022-07-22T05:44:26;18.30;99.90
21244;DHT22;10780;50.942;4.028;2022-07-22T05:46:52;18.40;99.90
21244;DHT22;10780;50.942;4.028;2022-07-22T05:49:18;18.50;99.90
21244;DHT22;10780;50.942;4.028;2022-07-22T05:51:45;18.80;99.90
21244;DHT22;10780;50.942;4.028;2022-07-22T05:54:10;19.00;99.90
21244;DHT22;10780;50.942;4.028;2022-07-22T05:56:36;19.30;99.90
21244;DHT22;10780;50.942;4.028;2022-07-22T05:59:02;19.50;99.90
21244;DHT22;10780;50.942;4.028;2022-07-22T06:01:27;19.80;99.90
21244;DHT22;10780;50.942;4.028;2022-07-22T06:03:53;19.90;99.90
21244;DHT22;10780;50.942;4.028;2022-07-22T06:06:18;20.10;99.90
21244;DHT22;10780;50.942;4.028;2022-07-22T06:08:44;20.20;99.90
21244;DHT22;10780;50.942;4.028;2022-07-22T06:11:10;20.40;99.90
21244;DHT22;10780;50.942;4.028;2022-07-22T06:13:37;20.60;99.90
21244;DHT22;10780;50.942;4.028;2022-07-22T06:16:03;20.60;99.90
21244;DHT22;10780;50.942;4.028;2022-07-22T06:18:29;20.60;99.90
21244;DHT22;10780;50.942;4.028;2022-07-22T06:20:55;20.80;99.90
21244;DHT22;10780;50.942;4.028;2022-07-22T06:23:23;21.00;99.90
21244;DHT22;10780;50.942;4.028;2022-07-22T06:25:49;20.90;99.90
21244;DHT22;10780;50.942;4.028;2022-07-22T06:28:14;20.60;99.90
21244;DHT22;10780;50.942;4.028;2022-07-22T06:30:40;20.70;99.90
21244;DHT22;10780;50.942;4.028;2022-07-22T06:33:06;20.90;99.90
21244;DHT22;10780;50.942;4.028;2022-07-22T06:35:32;21.10;99.90
21244;DHT22;10780;50.942;4.028;2022-07-22T06:37:57;21.10;99.90
21244;DHT22;10780;50.942;4.028;2022-07-22T06:40:23;21.10;99.90
21244;DHT22;10780;50.942;4.028;2022-07-22T06:42:48;21.30;99.90
21244;DHT22;10780;50.942;4.028;2022-07-22T06:45:14;21.30;99.90
21244;DHT22;10780;50.942;4.028;2022-07-22T06:47:40;21.20;99.90
21244;DHT22;10780;50.942;4.028;2022-07-22T06:50:07;21.30;99.90
21244;DHT22;10780;50.942;4.028;2022-07-22T06:52:33;21.40;99.90
21244;DHT22;10780;50.942;4.028;2022-07-22T06:54:59;21.40;99.90
21244;DHT22;10780;50.942;4.028;2022-07-22T06:57:24;21.30;99.90
21244;DHT22;10780;50.942;4.028;2022-07-22T06:59:50;21.40;99.90
21244;DHT22;10780;50.942;4.028;2022-07-22T07:02:16;21.40;99.90
21244;DHT22;10780;50.942;4.028;2022-07-22T07:04:42;21.70;99.90
21244;DHT22;10780;50.942;4.028;2022-07-22T07:07:08;21.80;99.90
21244;DHT22;10780;50.942;4.028;2022-07-22T07:09:34;22.10;99.90
21244;DHT22;10780;50.942;4.028;2022-07-22T07:12:00;22.20;99.90
21244;DHT22;10780;50.942;4.028;2022-07-22T07:14:26;22.60;99.90
21244;DHT22;10780;50.942;4.028;2022-07-22T07:16:51;23.10;99.90
21244;DHT22;10780;50.942;4.028;2022-07-22T07:19:17;23.10;99.90
21244;DHT22;10780;50.942;4.028;2022-07-22T07:21:45;22.80;99.90
21244;DHT22;10780;50.942;4.028;2022-07-22T07:24:10;22.90;99.90
21244;DHT22;10780;50.942;4.028;2022-07-22T07:26:37;22.90;99.90
21244;DHT22;10780;50.942;4.028;2022-07-22T07:29:03;23.00;99.90
21244;DHT22;10780;50.942;4.028;2022-07-22T07:31:29;23.10;99.90
21244;DHT22;10780;50.942;4.028;2022-07-22T07:33:54;22.70;99.90
21244;DHT22;10780;50.942;4.028;2022-07-22T07:36:20;22.30;99.90
21244;DHT22;10780;50.942;4.028;2022-07-22T07:38:46;22.00;99.90
21244;DHT22;10780;50.942;4.028;2022-07-22T07:41:12;21.90;99.90
21244;DHT22;10780;50.942;4.028;2022-07-22T07:43:37;21.80;99.90
21244;DHT22;10780;50.942;4.028;2022-07-22T07:46:03;21.80;99.90
21244;DHT22;10780;50.942;4.028;2022-07-22T07:48:29;21.60;99.90
21244;DHT22;10780;50.942;4.028;2022-07-22T07:50:54;22.00;99.90
21244;DHT22;10780;50.942;4.028;2022-07-22T07:53:20;22.10;99.90
21244;DHT22;10780;50.942;4.028;2022-07-22T07:55:46;22.40;99.90
21244;DHT22;10780;50.942;4.028;2022-07-22T07:58:12;22.50;99.90
21244;DHT22;10780;50.942;4.028;2022-07-22T08:00:37;22.60;99.90
21244;DHT22;10780;50.942;4.028;2022-07-22T08:03:05;22.30;99.90
21244;DHT22;10780;50.942;4.028;2022-07-22T08:05:31;22.30;99.90
21244;DHT22;10780;50.942;4.028;2022-07-22T08:07:56;22.50;99.90
21244;DHT22;10780;50.942;4.028;2022-07-22T08:10:22;22.60;99.90
21244;DHT22;10780;50.942;4.028;2022-07-22T08:12:48;22.90;99.90
21244;DHT22;10780;50.942;4.028;2022-07-22T08:15:14;22.90;99.90
21244;DHT22;10780;50.942;4.028;2022-07-22T08:17:40;22.80;99.90
21244;DHT22;10780;50.942;4.028;2022-07-22T08:20:06;22.90;99.90
21244;DHT22;10780;50.942;4.028;2022-07-22T08:22:33;22.90;99.90
21244;DHT22;10780;50.942;4.028;2022-07-22T08:24:59;23.10;99.90
21244;DHT22;10780;50.942;4.028;2022-07-22T08:27:24;23.00;99.90
21244;DHT22;10780;50.942;4.028;2022-07-22T08:29:50;22.80;99.90
21244;DHT22;10780;50.942;4.028;2022-07-22T08:32:16;22.70;99.90
21244;DHT22;10780;50.942;4.028;2022-07-22T08:34:41;22.90;99.90
21244;DHT22;10780;50.942;4.028;2022-07-22T08:37:07;23.00;99.90
21244;DHT22;10780;50.942;4.028;2022-07-22T08:39:32;23.10;99.90
21244;DHT22;10780;50.942;4.028;2022-07-22T08:42:00;23.00;99.90
21244;DHT22;10780;50.942;4.028;2022-07-22T08:44:30;23.30;99.90
21244;DHT22;10780;50.942;4.028;2022-07-22T08:46:56;23.50;99.90
21244;DHT22;10780;50.942;4.028;2022-07-22T08:49:22;23.30;99.90
21244;DHT22;10780;50.942;4.028;2022-07-22T08:51:47;23.30;99.90
21244;DHT22;10780;50.942;4.028;2022-07-22T08:54:13;23.10;99.90
21244;DHT22;10780;50.942;4.028;2022-07-22T08:56:39;23.30;99.90
21244;DHT22;10780;50.942;4.028;2022-07-22T08:59:04;23.20;99.90
21244;DHT22;10780;50.942;4.028;2022-07-22T09:01:30;23.30;99.90
21244;DHT22;10780;50.942;4.028;2022-07-22T09:03:57;23.40;99.90
21244;DHT22;10780;50.942;4.028;2022-07-22T09:06:25;23.40;99.90
21244;DHT22;10780;50.942;4.028;2022-07-22T09:08:56;23.10;99.90
21244;DHT22;10780;50.942;4.028;2022-07-22T09:11:24;23.20;99.90
21244;DHT22;10780;50.942;4.028;2022-07-22T09:13:51;23.40;99.90
21244;DHT22;10780;50.942;4.028;2022-07-22T09:16:38;23.90;99.90
21244;DHT22;10780;50.942;4.028;2022-07-22T09:19:04;24.10;99.90
21244;DHT22;10780;50.942;4.028;2022-07-22T09:21:30;24.30;99.90
21244;DHT22;10780;50.942;4.028;2022-07-22T09:23:56;24.60;99.90
21244;DHT22;10780;50.942;4.028;2022-07-22T09:26:33;25.10;99.90
21244;DHT22;10780;50.942;4.028;2022-07-22T09:28:59;25.80;99.90
21244;DHT22;10780;50.942;4.028;2022-07-22T09:31:31;24.90;99.90
21244;DHT22;10780;50.942;4.028;2022-07-22T09:33:57;24.90;99.90
21244;DHT22;10780;50.942;4.028;2022-07-22T09:36:24;24.50;99.90
21244;DHT22;10780;50.942;4.028;2022-07-22T09:38:50;24.60;99.90
21244;DHT22;10780;50.942;4.028;2022-07-22T09:41:16;24.20;99.90
21244;DHT22;10780;50.942;4.028;2022-07-22T09:43:41;24.00;99.90
21244;DHT22;10780;50.942;4.028;2022-07-22T09:46:07;24.50;99.90
21244;DHT22;10780;50.942;4.028;2022-07-22T09:48:36;24.80;99.90
21244;DHT22;10780;50.942;4.028;2022-07-22T09:51:02;25.60;99.90
21244;DHT22;10780;50.942;4.028;2022-07-22T09:53:29;25.90;99.90
21244;DHT22;10780;50.942;4.028;2022-07-22T09:55:59;26.20;99.90
21244;DHT22;10780;50.942;4.028;2022-07-22T09:58:26;25.80;99.90
21244;DHT22;10780;50.942;4.028;2022-07-22T10:00:52;25.50;99.90
21244;DHT22;10780;50.942;4.028;2022-07-22T10:03:25;25.60;99.90
21244;DHT22;10780;50.942;4.028;2022-07-22T10:05:51;25.50;99.90
21244;DHT22;10780;50.942;4.028;2022-07-22T10:08:18;26.20;99.90
21244;DHT22;10780;50.942;4.028;2022-07-22T10:10:44;26.10;99.90
21244;DHT22;10780;50.942;4.028;2022-07-22T10:13:09;26.00;99.90
21244;DHT22;10780;50.942;4.028;2022-07-22T10:15:36;25.70;99.90
21244;DHT22;10780;50.942;4.028;2022-07-22T10:18:14;25.50;99.90
21244;DHT22;10780;50.942;4.028;2022-07-22T10:20:40;25.50;99.90
21244;DHT22;10780;50.942;4.028;2022-07-22T10:23:07;25.70;99.90
21244;DHT22;10780;50.942;4.028;2022-07-22T10:28:29;25.90;99.90
21244;DHT22;10780;50.942;4.028;2022-07-22T10:31:18;26.30;99.90
21244;DHT22;10780;50.942;4.028;2022-07-22T10:33:45;26.50;99.90
21244;DHT22;10780;50.942;4.028;2022-07-22T10:36:12;25.40;99.90
21244;DHT22;10780;50.942;4.028;2022-07-22T10:39:03;23.90;99.90
21244;DHT22;10780;50.942;4.028;2022-07-22T10:41:41;24.00;99.90
21244;DHT22;10780;50.942;4.028;2022-07-22T10:44:06;24.60;99.90
21244;DHT22;10780;50.942;4.028;2022-07-22T10:46:51;25.10;99.90
21244;DHT22;10780;50.942;4.028;2022-07-22T10:49:18;25.70;99.90
21244;DHT22;10780;50.942;4.028;2022-07-22T10:54:32;26.30;99.90
21244;DHT22;10780;50.942;4.028;2022-07-22T10:56:59;26.60;99.90
21244;DHT22;10780;50.942;4.028;2022-07-22T10:59:25;26.60;99.90
21244;DHT22;10780;50.942;4.028;2022-07-22T11:01:51;25.80;99.90
21244;DHT22;10780;50.942;4.028;2022-07-22T11:04:24;25.70;99.90
21244;DHT22;10780;50.942;4.028;2022-07-22T11:06:52;25.70;99.90
21244;DHT22;10780;50.942;4.028;2022-07-22T11:09:21;25.70;99.90
21244;DHT22;10780;50.942;4.028;2022-07-22T11:11:53;25.60;99.90
21244;DHT22;10780;50.942;4.028;2022-07-22T11:14:30;25.80;99.90
21244;DHT22;10780;50.942;4.028;2022-07-22T11:17:16;26.10;99.90
21244;DHT22;10780;50.942;4.028;2022-07-22T11:19:42;26.10;99.90
21244;DHT22;10780;50.942;4.028;2022-07-22T11:22:10;25.80;99.90
21244;DHT22;10780;50.942;4.028;2022-07-22T11:24:37;25.70;99.90
21244;DHT22;10780;50.942;4.028;2022-07-22T11:27:03;25.60;99.90
21244;DHT22;10780;50.942;4.028;2022-07-22T11:29:35;25.30;99.90
21244;DHT22;10780;50.942;4.028;2022-07-22T11:32:04;25.60;99.90
21244;DHT22;10780;50.942;4.028;2022-07-22T11:34:30;26.20;99.90
21244;DHT22;10780;50.942;4.028;2022-07-22T11:36:56;26.50;99.90
21244;DHT22;10780;50.942;4.028;2022-07-22T11:39:25;26.60;99.90
21244;DHT22;10780;50.942;4.028;2022-07-22T11:41:53;26.80;99.90
21244;DHT22;10780;50.942;4.028;2022-07-22T11:44:20;26.80;99.90
21244;DHT22;10780;50.942;4.028;2022-07-22T11:46:46;27.10;99.90
21244;DHT22;10780;50.942;4.028;2022-07-22T11:49:18;27.50;99.90
21244;DHT22;10780;50.942;4.028;2022-07-22T11:51:43;27.10;99.90
21244;DHT22;10780;50.942;4.028;2022-07-22T11:54:09;26.50;99.90
21244;DHT22;10780;50.942;4.028;2022-07-22T11:56:35;26.60;99.90
21244;DHT22;10780;50.942;4.028;2022-07-22T11:59:01;27.10;99.90
21244;DHT22;10780;50.942;4.028;2022-07-22T12:01:31;27.20;99.90
21244;DHT22;10780;50.942;4.028;2022-07-22T12:04:06;27.20;99.90
21244;DHT22;10780;50.942;4.028;2022-07-22T12:06:33;26.20;99.90
21244;DHT22;10780;50.942;4.028;2022-07-22T12:11:28;27.70;99.90
21244;DHT22;10780;50.942;4.028;2022-07-22T12:13:54;28.00;99.90
21244;DHT22;10780;50.942;4.028;2022-07-22T12:19:03;28.40;99.90
21244;DHT22;10780;50.942;4.028;2022-07-22T12:21:48;28.00;99.90
21244;DHT22;10780;50.942;4.028;2022-07-22T12:24:14;28.00;99.90
21244;DHT22;10780;50.942;4.028;2022-07-22T12:26:48;27.30;99.90
21244;DHT22;10780;50.942;4.028;2022-07-22T12:34:16;26.80;99.90
21244;DHT22;10780;50.942;4.028;2022-07-22T12:36:46;26.90;99.90
21244;DHT22;10780;50.942;4.028;2022-07-22T12:39:17;27.20;99.90
21244;DHT22;10780;50.942;4.028;2022-07-22T12:41:51;27.40;99.90
21244;DHT22;10780;50.942;4.028;2022-07-22T12:44:24;27.70;99.90
21244;DHT22;10780;50.942;4.028;2022-07-22T12:46:54;28.10;99.90
21244;DHT22;10780;50.942;4.028;2022-07-22T12:49:23;28.50;99.90
21244;DHT22;10780;50.942;4.028;2022-07-22T12:52:10;28.50;99.90
21244;DHT22;10780;50.942;4.028;2022-07-22T12:54:37;28.60;99.90
21244;DHT22;10780;50.942;4.028;2022-07-22T12:57:04;28.00;99.90
21244;DHT22;10780;50.942;4.028;2022-07-22T12:59:30;27.70;99.90
21244;DHT22;10780;50.942;4.028;2022-07-22T13:01:56;27.30;99.90
21244;DHT22;10780;50.942;4.028;2022-07-22T13:04:22;27.00;99.90
21244;DHT22;10780;50.942;4.028;2022-07-22T13:06:47;26.50;99.90
21244;DHT22;10780;50.942;4.028;2022-07-22T13:09:14;26.50;99.90
21244;DHT22;10780;50.942;4.028;2022-07-22T13:11:39;26.60;99.90
21244;DHT22;10780;50.942;4.028;2022-07-22T13:14:09;26.50;99.90
21244;DHT22;10780;50.942;4.028;2022-07-22T13:16:34;26.90;99.90
21244;DHT22;10780;50.942;4.028;2022-07-22T13:19:00;26.90;99.90
21244;DHT22;10780;50.942;4.028;2022-07-22T13:21:26;27.00;99.90
21244;DHT22;10780;50.942;4.028;2022-07-22T13:23:51;26.60;99.90
21244;DHT22;10780;50.942;4.028;2022-07-22T13:26:17;27.00;99.90
21244;DHT22;10780;50.942;4.028;2022-07-22T13:28:43;27.20;99.90
21244;DHT22;10780;50.942;4.028;2022-07-22T13:31:09;27.00;99.90
21244;DHT22;10780;50.942;4.028;2022-07-22T13:33:34;26.80;99.90
21244;DHT22;10780;50.942;4.028;2022-07-22T13:36:01;27.20;99.90
21244;DHT22;10780;50.942;4.028;2022-07-22T13:38:26;27.00;99.90
21244;DHT22;10780;50.942;4.028;2022-07-22T13:40:52;26.90;99.90
21244;DHT22;10780;50.942;4.028;2022-07-22T13:43:23;26.60;99.90
21244;DHT22;10780;50.942;4.028;2022-07-22T13:45:49;26.40;99.90
21244;DHT22;10780;50.942;4.028;2022-07-22T13:48:15;26.50;99.90
21244;DHT22;10780;50.942;4.028;2022-07-22T13:50:44;26.20;99.90
21244;DHT22;10780;50.942;4.028;2022-07-22T13:53:09;26.20;99.90
21244;DHT22;10780;50.942;4.028;2022-07-22T13:55:38;26.30;99.90
21244;DHT22;10780;50.942;4.028;2022-07-22T13:58:03;26.40;99.90
21244;DHT22;10780;50.942;4.028;2022-07-22T14:00:29;26.40;99.90
21244;DHT22;10780;50.942;4.028;2022-07-22T14:02:55;26.60;99.90
21244;DHT22;10780;50.942;4.028;2022-07-22T14:05:21;26.70;99.90
21244;DHT22;10780;50.942;4.028;2022-07-22T14:07:46;26.80;99.90
21244;DHT22;10780;50.942;4.028;2022-07-22T14:10:12;26.90;99.90
21244;DHT22;10780;50.942;4.028;2022-07-22T14:12:38;26.60;99.90
21244;DHT22;10780;50.942;4.028;2022-07-22T14:15:04;26.60;99.90
21244;DHT22;10780;50.942;4.028;2022-07-22T14:17:33;26.60;99.90
21244;DHT22;10780;50.942;4.028;2022-07-22T14:19:58;26.60;99.90
21244;DHT22;10780;50.942;4.028;2022-07-22T14:22:25;26.60;99.90
21244;DHT22;10780;50.942;4.028;2022-07-22T14:24:50;26.60;99.90
21244;DHT22;10780;50.942;4.028;2022-07-22T14:27:16;26.80;99.90
21244;DHT22;10780;50.942;4.028;2022-07-22T14:29:42;26.80;99.90
21244;DHT22;10780;50.942;4.028;2022-07-22T14:32:08;26.90;99.90
21244;DHT22;10780;50.942;4.028;2022-07-22T14:34:33;27.00;99.90
21244;DHT22;10780;50.942;4.028;2022-07-22T14:36:59;26.80;99.90
21244;DHT22;10780;50.942;4.028;2022-07-22T14:39:24;26.60;99.90
21244;DHT22;10780;50.942;4.028;2022-07-22T14:41:50;26.60;99.90
21244;DHT22;10780;50.942;4.028;2022-07-22T14:44:15;26.50;99.90
21244;DHT22;10780;50.942;4.028;2022-07-22T14:46:41;26.10;99.90
21244;DHT22;10780;50.942;4.028;2022-07-22T14:49:07;26.20;99.90
21244;DHT22;10780;50.942;4.028;2022-07-22T14:51:33;26.00;99.90
21244;DHT22;10780;50.942;4.028;2022-07-22T14:53:58;26.10;99.90
21244;DHT22;10780;50.942;4.028;2022-07-22T14:56:24;26.00;99.90
21244;DHT22;10780;50.942;4.028;2022-07-22T14:58:50;25.30;99.90
21244;DHT22;10780;50.942;4.028;2022-07-22T15:01:15;25.60;99.90
21244;DHT22;10780;50.942;4.028;2022-07-22T15:03:41;25.40;99.90
21244;DHT22;10780;50.942;4.028;2022-07-22T15:06:08;25.10;99.90
21244;DHT22;10780;50.942;4.028;2022-07-22T15:08:34;25.10;99.90
21244;DHT22;10780;50.942;4.028;2022-07-22T15:11:00;24.70;99.90
21244;DHT22;10780;50.942;4.028;2022-07-22T15:13:26;24.80;99.90
21244;DHT22;10780;50.942;4.028;2022-07-22T15:15:52;24.90;99.90
21244;DHT22;10780;50.942;4.028;2022-07-22T15:18:18;24.90;99.90
21244;DHT22;10780;50.942;4.028;2022-07-22T15:20:44;24.90;99.90
21244;DHT22;10780;50.942;4.028;2022-07-22T15:23:09;25.10;99.90
21244;DHT22;10780;50.942;4.028;2022-07-22T15:25:35;25.10;99.90
21244;DHT22;10780;50.942;4.028;2022-07-22T15:28:00;24.70;99.90
21244;DHT22;10780;50.942;4.028;2022-07-22T15:30:26;24.80;99.90
21244;DHT22;10780;50.942;4.028;2022-07-22T15:32:52;24.90;99.90
21244;DHT22;10780;50.942;4.028;2022-07-22T15:35:17;24.70;99.90
21244;DHT22;10780;50.942;4.028;2022-07-22T15:37:43;24.90;99.90
21244;DHT22;10780;50.942;4.028;2022-07-22T15:40:10;24.70;99.90
21244;DHT22;10780;50.942;4.028;2022-07-22T15:42:37;24.50;99.90